sensor_id;sensor_type;location;lat;lon;timestamp;pressure;altitude;pressure_sealevel;temperature;humidity
13690;BME280;6917;52.194;9.894;2022-12-01T00:02:04;101370.38;;;3.06;100.00
13690;BME280;6917;52.194;9.894;2022-12-01T00:04:29;101368.25;;;3.08;100.00
13690;BME280;6917;52.194;9.894;2022-12-01T00:06:54;101368.50;;;3.06;100.00
13690;BME280;6917;52.194;9.894;2022-12-01T00:09:20;101368.75;;;3.05;100.00
13690;BME280;6917;52.194;9.894;2022-12-01T00:12:04;101370.38;;;3.06;100.00
13690;BME280;6917;52.194;9.894;2022-12-01T00:14:30;101366.50;;;3.02;100.00
13690;BME280;6917;52.194;9.894;2022-12-01T00:16:56;101371.06;;;3.01;100.00
13690;BME280;6917;52.194;9.894;2022-12-01T00:19:25;101371.91;;;3.02;100.00
13690;BME280;6917;52.194;9.894;2022-12-01T00:21:50;101382.13;;;2.99;100.00
13690;BME280;6917;52.194;9.894;2022-12-01T00:24:15;101375.66;;;3.01;100.00
13690;BME280;6917;52.194;9.894;2022-12-01T00:26:41;101374.25;;;2.98;100.00
13690;BME280;6917;52.194;9.894;2022-12-01T00:29:06;101375.09;;;2.98;100.00
13690;BME280;6917;52.194;9.894;2022-12-01T00:31:31;101371.56;;;2.98;100.00
13690;BME280;6917;52.194;9.894;2022-12-01T00:33:57;101373.78;;;3.01;100.00
13690;BME280;6917;52.194;9.894;2022-12-01T00:36:22;101371.81;;;2.96;100.00
13690;BME280;6917;52.194;9.894;2022-12-01T00:38:53;101385.28;;;2.96;100.00
13690;BME280;6917;52.194;9.894;2022-12-01T00:41:19;101372.28;;;2.93;100.00
13690;BME280;6917;52.194;9.894;2022-12-01T00:43:45;101370.66;;;2.92;100.00
13690;BME280;6917;52.194;9.894;2022-12-01T00:46:10;101373.94;;;2.94;100.00
13690;BME280;6917;52.194;9.894;2022-12-01T00:48:36;101380.38;;;2.93;100.00
13690;BME280;6917;52.194;9.894;2022-12-01T00:51:01;101384.63;;;2.89;100.00
13690;BME280;6917;52.194;9.894;2022-12-01T00:53:27;101387.31;;;2.89;100.00
13690;BME280;6917;52.194;9.894;2022-12-01T00:55:52;101386.47;;;2.89;100.00
13690;BME280;6917;52.194;9.894;2022-12-01T00:58:18;101384.50;;;2.84;100.00
13690;BME280;6917;52.194;9.894;2022-12-01T01:00:43;101386.94;;;2.86;100.00
13690;BME280;6917;52.194;9.894;2022-12-01T01:03:09;101391.53;;;2.85;100.00
13690;BME280;6917;52.194;9.894;2022-12-01T01:05:39;101386.75;;;2.76;100.00
13690;BME280;6917;52.194;9.894;2022-12-01T01:08:06;101390.28;;;2.76;100.00
13690;BME280;6917;52.194;9.894;2022-12-01T01:10:32;101399.06;;;2.72;100.00
13690;BME280;6917;52.194;9.894;2022-12-01T01:12:57;101392.00;;;2.71;100.00
13690;BME280;6917;52.194;9.894;2022-12-01T01:15:22;101403.03;;;2.69;100.00
13690;BME280;6917;52.194;9.894;2022-12-01T01:17:48;101400.09;;;2.71;100.00
13690;BME280;6917;52.194;9.894;2022-12-01T01:20:13;101407.03;;;2.66;100.00
13690;BME280;6917;52.194;9.894;2022-12-01T01:22:39;101405.63;;;2.64;100.00
13690;BME280;6917;52.194;9.894;2022-12-01T01:25:04;101413.72;;;2.64;100.00
13690;BME280;6917;52.194;9.894;2022-12-01T01:27:30;101403.41;;;2.61;100.00
13690;BME280;6917;52.194;9.894;2022-12-01T01:29:55;101408.44;;;2.57;100.00
13690;BME280;6917;52.194;9.894;2022-12-01T01:32:20;101410.69;;;2.60;100.00
13690;BME280;6917;52.194;9.894;2022-12-01T01:34:46;101407.84;;;2.55;100.00
13690;BME280;6917;52.194;9.894;2022-12-01T01:37:11;101417.25;;;2.53;100.00
13690;BME280;6917;52.194;9.894;2022-12-01T01:39:36;101416.19;;;2.54;100.00
13690;BME280;6917;52.194;9.894;2022-12-01T01:42:02;101416.50;;;2.46;100.00
13690;BME280;6917;52.194;9.894;2022-12-01T01:47:17;101422.28;;;2.37;100.00
13690;BME280;6917;52.194;9.894;2022-12-01T01:49:44;101419.09;;;2.29;100.00
13690;BME280;6917;52.194;9.894;2022-12-01T01:52:10;101415.22;;;2.25;100.00
13690;BME280;6917;52.194;9.894;2022-12-01T01:54:42;101414.88;;;2.21;100.00
13690;BME280;6917;52.194;9.894;2022-12-01T01:57:09;101411.09;;;2.11;100.00
13690;BME280;6917;52.194;9.894;2022-12-01T01:59:42;101406.63;;;2.04;100.00
13690;BME280;6917;52.194;9.894;2022-12-01T02:02:09;101409.69;;;2.08;100.00
13690;BME280;6917;52.194;9.894;2022-12-01T02:04:44;101411.78;;;2.06;100.00
13690;BME280;6917;52.194;9.894;2022-12-01T02:07:11;101407.31;;;2.00;100.00
13690;BME280;6917;52.194;9.894;2022-12-01T02:09:37;101417.59;;;1.91;100.00
13690;BME280;6917;52.194;9.894;2022-12-01T02:15:07;101412.81;;;1.93;100.00
13690;BME280;6917;52.194;9.894;2022-12-01T02:25:23;101421.66;;;1.82;100.00
13690;BME280;6917;52.194;9.894;2022-12-01T02:30:40;101417.22;;;1.76;100.00
13690;BME280;6917;52.194;9.894;2022-12-01T02:33:25;101417.28;;;1.69;100.00
13690;BME280;6917;52.194;9.894;2022-12-01T02:36:03;101425.13;;;1.71;100.00
13690;BME280;6917;52.194;9.894;2022-12-01T02:41:26;101421.97;;;1.62;100.00
13690;BME280;6917;52.194;9.894;2022-12-01T02:44:00;101420.91;;;1.63;100.00
13690;BME280;6917;52.194;9.894;2022-12-01T02:46:45;101418.81;;;1.65;100.00
13690;BME280;6917;52.194;9.894;2022-12-01T02:49:18;101423.72;;;1.68;100.00
13690;BME280;6917;52.194;9.894;2022-12-01T02:51:46;101420.81;;;1.70;100.00
13690;BME280;6917;52.194;9.894;2022-12-01T02:54:13;101423.72;;;1.68;100.00
13690;BME280;6917;52.194;9.894;2022-12-01T02:56:39;101415.53;;;1.63;100.00
13690;BME280;6917;52.194;9.894;2022-12-01T02:59:09;101420.22;;;1.68;100.00
13690;BME280;6917;52.194;9.894;2022-12-01T03:09:33;101421.44;;;1.54;100.00
13690;BME280;6917;52.194;9.894;2022-12-01T03:17:28;101423.78;;;1.50;100.00
13690;BME280;6917;52.194;9.894;2022-12-01T03:20:00;101424.66;;;1.44;100.00
13690;BME280;6917;52.194;9.894;2022-12-01T03:22:36;101419.16;;;1.39;100.00
13690;BME280;6917;52.194;9.894;2022-12-01T03:25:04;101422.88;;;1.38;100.00
13690;BME280;6917;52.194;9.894;2022-12-01T03:27:34;101427.22;;;1.39;100.00
13690;BME280;6917;52.194;9.894;2022-12-01T03:30:02;101426.41;;;1.38;100.00
13690;BME280;6917;52.194;9.894;2022-12-01T03:32:32;101426.84;;;1.35;100.00
13690;BME280;6917;52.194;9.894;2022-12-01T03:38:22;101420.94;;;1.27;100.00
13690;BME280;6917;52.194;9.894;2022-12-01T03:40:50;101426.78;;;1.24;100.00
13690;BME280;6917;52.194;9.894;2022-12-01T03:43:20;101427.84;;;1.23;100.00
13690;BME280;6917;52.194;9.894;2022-12-01T03:48:19;101429.94;;;1.21;100.00
13690;BME280;6917;52.194;9.894;2022-12-01T03:51:09;101426.78;;;1.24;100.00
13690;BME280;6917;52.194;9.894;2022-12-01T03:53:48;101428.06;;;1.21;100.00
13690;BME280;6917;52.194;9.894;2022-12-01T03:56:19;101428.94;;;1.15;100.00
13690;BME280;6917;52.194;9.894;2022-12-01T03:58:46;101430.75;;;1.21;100.00
13690;BME280;6917;52.194;9.894;2022-12-01T04:01:13;101434.13;;;1.16;100.00
13690;BME280;6917;52.194;9.894;2022-12-01T04:03:38;101437.84;;;1.15;100.00
13690;BME280;6917;52.194;9.894;2022-12-01T04:06:04;101440.53;;;1.15;100.00
13690;BME280;6917;52.194;9.894;2022-12-01T04:08:29;101433.09;;;1.17;100.00
13690;BME280;6917;52.194;9.894;2022-12-01T04:10:55;101440.47;;;1.22;100.00
13690;BME280;6917;52.194;9.894;2022-12-01T04:13:21;101432.16;;;1.24;100.00
13690;BME280;6917;52.194;9.894;2022-12-01T04:15:53;101439.34;;;1.30;100.00
13690;BME280;6917;52.194;9.894;2022-12-01T04:18:19;101437.31;;;1.25;100.00
13690;BME280;6917;52.194;9.894;2022-12-01T04:20:46;101439.94;;;1.13;100.00
13690;BME280;6917;52.194;9.894;2022-12-01T04:23:12;101431.88;;;1.13;100.00
13690;BME280;6917;52.194;9.894;2022-12-01T04:26:01;101442.25;;;1.10;100.00
13690;BME280;6917;52.194;9.894;2022-12-01T04:28:27;101437.56;;;1.05;100.00
13690;BME280;6917;52.194;9.894;2022-12-01T04:30:52;101430.31;;;1.06;100.00
13690;BME280;6917;52.194;9.894;2022-12-01T04:33:18;101437.34;;;1.07;100.00
13690;BME280;6917;52.194;9.894;2022-12-01T04:35:43;101439.22;;;1.06;100.00
13690;BME280;6917;52.194;9.894;2022-12-01T04:38:08;101437.78;;;1.04;100.00
13690;BME280;6917;52.194;9.894;2022-12-01T04:40:34;101444.34;;;1.08;100.00
13690;BME280;6917;52.194;9.894;2022-12-01T04:42:59;101449.97;;;1.06;100.00
13690;BME280;6917;52.194;9.894;2022-12-01T04:45:24;101444.34;;;1.08;100.00
13690;BME280;6917;52.194;9.894;2022-12-01T04:47:52;101435.84;;;1.11;100.00
13690;BME280;6917;52.194;9.894;2022-12-01T04:50:18;101448.00;;;1.13;100.00
13690;BME280;6917;52.194;9.894;2022-12-01T04:52:43;101441.81;;;1.13;100.00
13690;BME280;6917;52.194;9.894;2022-12-01T04:55:08;101447.78;;;1.15;100.00
13690;BME280;6917;52.194;9.894;2022-12-01T04:57:34;101450.47;;;1.15;100.00
13690;BME280;6917;52.194;9.894;2022-12-01T05:00:00;101458.78;;;1.13;100.00
13690;BME280;6917;52.194;9.894;2022-12-01T05:02:25;101451.75;;;1.12;100.00
13690;BME280;6917;52.194;9.894;2022-12-01T05:04:50;101453.63;;;1.12;100.00
13690;BME280;6917;52.194;9.894;2022-12-01T05:07:15;101458.78;;;1.13;100.00
13690;BME280;6917;52.194;9.894;2022-12-01T05:09:42;101454.00;;;1.15;100.00
13690;BME280;6917;52.194;9.894;2022-12-01T05:12:07;101457.53;;;1.16;100.00
13690;BME280;6917;52.194;9.894;2022-12-01T05:14:33;101462.91;;;1.16;100.00
13690;BME280;6917;52.194;9.894;2022-12-01T05:16:58;101473.50;;;1.11;100.00
13690;BME280;6917;52.194;9.894;2022-12-01T05:19:24;101479.25;;;1.14;100.00
13690;BME280;6917;52.194;9.894;2022-12-01T05:22:08;101480.91;;;1.15;100.00
13690;BME280;6917;52.194;9.894;2022-12-01T05:24:33;101480.31;;;1.13;100.00
13690;BME280;6917;52.194;9.894;2022-12-01T05:26:59;101479.88;;;1.16;100.00
13690;BME280;6917;52.194;9.894;2022-12-01T05:29:24;101480.47;;;1.18;100.00
13690;BME280;6917;52.194;9.894;2022-12-01T05:31:49;101487.50;;;1.19;100.00
13690;BME280;6917;52.194;9.894;2022-12-01T05:34:15;101490.34;;;1.25;100.00
13690;BME280;6917;52.194;9.894;2022-12-01T05:36:40;101490.56;;;1.23;100.00
13690;BME280;6917;52.194;9.894;2022-12-01T05:39:06;101488.91;;;1.22;100.00
13690;BME280;6917;52.194;9.894;2022-12-01T05:41:31;101499.09;;;1.20;100.00
13690;BME280;6917;52.194;9.894;2022-12-01T05:43:56;101494.31;;;1.22;100.00
13690;BME280;6917;52.194;9.894;2022-12-01T05:46:22;101496.16;;;1.22;100.00
13690;BME280;6917;52.194;9.894;2022-12-01T05:48:47;101499.97;;;1.14;100.00
13690;BME280;6917;52.194;9.894;2022-12-01T05:51:14;101498.09;;;1.14;100.00
13690;BME280;6917;52.194;9.894;2022-12-01T05:53:40;101499.59;;;1.10;100.00
13690;BME280;6917;52.194;9.894;2022-12-01T05:56:06;101507.81;;;1.15;100.00
13690;BME280;6917;52.194;9.894;2022-12-01T05:58:33;101503.06;;;1.17;100.00
13690;BME280;6917;52.194;9.894;2022-12-01T06:00:59;101504.16;;;1.10;100.00
13690;BME280;6917;52.194;9.894;2022-12-01T06:03:24;101504.38;;;1.08;100.00
13690;BME280;6917;52.194;9.894;2022-12-01T06:05:49;101514.09;;;1.09;100.00
13690;BME280;6917;52.194;9.894;2022-12-01T06:08:15;101507.66;;;1.10;100.00
13690;BME280;6917;52.194;9.894;2022-12-01T06:10:40;101505.53;;;1.19;100.00
13690;BME280;6917;52.194;9.894;2022-12-01T06:13:05;101513.59;;;1.19;100.00
13690;BME280;6917;52.194;9.894;2022-12-01T06:15:31;101513.19;;;1.15;100.00
13690;BME280;6917;52.194;9.894;2022-12-01T06:17:59;101517.16;;;1.13;100.00
13690;BME280;6917;52.194;9.894;2022-12-01T06:20:25;101513.19;;;1.15;100.00
13690;BME280;6917;52.194;9.894;2022-12-01T06:22:50;101519.03;;;1.12;100.00
13690;BME280;6917;52.194;9.894;2022-12-01T06:25:16;101522.53;;;1.13;100.00
13690;BME280;6917;52.194;9.894;2022-12-01T06:27:41;101532.03;;;1.15;100.00
13690;BME280;6917;52.194;9.894;2022-12-01T06:30:07;101532.66;;;1.17;100.00
13690;BME280;6917;52.194;9.894;2022-12-01T06:32:32;101531.84;;;1.17;100.00
13690;BME280;6917;52.194;9.894;2022-12-01T06:34:58;101533.25;;;1.19;100.00
13690;BME280;6917;52.194;9.894;2022-12-01T06:37:23;101535.50;;;1.23;100.00
13690;BME280;6917;52.194;9.894;2022-12-01T06:39:48;101536.09;;;1.25;100.00
13690;BME280;6917;52.194;9.894;2022-12-01T06:42:14;101540.66;;;1.24;100.00
13690;BME280;6917;52.194;9.894;2022-12-01T06:44:39;101543.13;;;1.26;100.00
13690;BME280;6917;52.194;9.894;2022-12-01T06:47:04;101548.34;;;1.21;100.00
13690;BME280;6917;52.194;9.894;2022-12-01T06:49:31;101540.88;;;1.23;100.00
13690;BME280;6917;52.194;9.894;2022-12-01T06:51:57;101548.13;;;1.22;100.00
13690;BME280;6917;52.194;9.894;2022-12-01T06:54:22;101549.56;;;1.25;100.00
13690;BME280;6917;52.194;9.894;2022-12-01T06:56:47;101553.44;;;1.29;100.00
13690;BME280;6917;52.194;9.894;2022-12-01T06:59:13;101554.94;;;1.25;100.00
13690;BME280;6917;52.194;9.894;2022-12-01T07:01:38;101552.84;;;1.27;100.00
13690;BME280;6917;52.194;9.894;2022-12-01T07:04:03;101550.81;;;1.22;100.00
13690;BME280;6917;52.194;9.894;2022-12-01T07:06:29;101555.31;;;1.28;100.00
13690;BME280;6917;52.194;9.894;2022-12-01T07:08:55;101550.16;;;1.27;100.00
13690;BME280;6917;52.194;9.894;2022-12-01T07:11:20;101552.25;;;1.25;100.00
13690;BME280;6917;52.194;9.894;2022-12-01T07:13:46;101556.88;;;1.17;100.00
13690;BME280;6917;52.194;9.894;2022-12-01T07:16:13;101559.16;;;1.14;100.00
13690;BME280;6917;52.194;9.894;2022-12-01T07:18:39;101561.22;;;1.18;100.00
13690;BME280;6917;52.194;9.894;2022-12-01T07:21:11;101550.50;;;1.12;100.00
13690;BME280;6917;52.194;9.894;2022-12-01T07:23:37;101554.78;;;1.19;100.00
13690;BME280;6917;52.194;9.894;2022-12-01T07:26:09;101560.00;;;1.14;100.00
13690;BME280;6917;52.194;9.894;2022-12-01T07:28:34;101556.25;;;1.15;100.00
13690;BME280;6917;52.194;9.894;2022-12-01T07:31:08;101557.94;;;1.16;100.00
13690;BME280;6917;52.194;9.894;2022-12-01T07:33:34;101557.94;;;1.16;100.00
13690;BME280;6917;52.194;9.894;2022-12-01T07:35:59;101555.38;;;1.22;100.00
13690;BME280;6917;52.194;9.894;2022-12-01T07:38:32;101567.53;;;1.31;100.00
13690;BME280;6917;52.194;9.894;2022-12-01T07:41:17;101557.72;;;1.18;100.00
13690;BME280;6917;52.194;9.894;2022-12-01T07:43:46;101562.03;;;1.19;100.00
13690;BME280;6917;52.194;9.894;2022-12-01T07:46:17;101565.94;;;1.23;100.00
13690;BME280;6917;52.194;9.894;2022-12-01T07:48:43;101565.09;;;1.23;100.00
13690;BME280;6917;52.194;9.894;2022-12-01T07:51:12;101565.94;;;1.23;100.00
13690;BME280;6917;52.194;9.894;2022-12-01T07:53:37;101571.59;;;1.15;100.00
13690;BME280;6917;52.194;9.894;2022-12-01T07:56:03;101576.81;;;1.10;100.00
13690;BME280;6917;52.194;9.894;2022-12-01T07:58:29;101575.75;;;1.11;100.00
13690;BME280;6917;52.194;9.894;2022-12-01T08:00:55;101572.47;;;1.09;100.00
13690;BME280;6917;52.194;9.894;2022-12-01T08:03:21;101574.94;;;1.10;100.00
13690;BME280;6917;52.194;9.894;2022-12-01T08:05:59;101572.94;;;1.06;100.00
13690;BME280;6917;52.194;9.894;2022-12-01T08:08:25;101575.16;;;1.09;100.00
13690;BME280;6917;52.194;9.894;2022-12-01T08:10:51;101579.66;;;1.15;100.00
13690;BME280;6917;52.194;9.894;2022-12-01T08:13:18;101579.50;;;1.10;100.00
13690;BME280;6917;52.194;9.894;2022-12-01T08:15:43;101585.25;;;1.13;100.00
13690;BME280;6917;52.194;9.894;2022-12-01T08:18:08;101590.22;;;1.16;100.00
13690;BME280;6917;52.194;9.894;2022-12-01T08:20:33;101591.69;;;1.12;100.00
13690;BME280;6917;52.194;9.894;2022-12-01T08:23:00;101583.00;;;1.10;100.00
13690;BME280;6917;52.194;9.894;2022-12-01T08:25:26;101578.47;;;1.11;100.00
13690;BME280;6917;52.194;9.894;2022-12-01T08:27:51;101580.91;;;1.12;100.00
13690;BME280;6917;52.194;9.894;2022-12-01T08:30:17;101583.00;;;1.10;100.00
13690;BME280;6917;52.194;9.894;2022-12-01T08:32:42;101587.19;;;1.06;100.00
13690;BME280;6917;52.194;9.894;2022-12-01T08:35:07;101591.69;;;1.12;100.00
13690;BME280;6917;52.194;9.894;2022-12-01T08:37:33;101585.25;;;1.13;100.00
13690;BME280;6917;52.194;9.894;2022-12-01T08:39:58;101584.63;;;1.18;100.00
13690;BME280;6917;52.194;9.894;2022-12-01T08:42:23;101586.91;;;1.14;100.00
13690;BME280;6917;52.194;9.894;2022-12-01T08:44:49;101586.53;;;1.11;100.00
13690;BME280;6917;52.194;9.894;2022-12-01T08:47:14;101576.22;;;1.08;100.00
13690;BME280;6917;52.194;9.894;2022-12-01T08:49:39;101588.63;;;1.09;100.00
13690;BME280;6917;52.194;9.894;2022-12-01T08:52:04;101588.41;;;1.10;100.00
13690;BME280;6917;52.194;9.894;2022-12-01T08:54:30;101593.09;;;1.15;100.00
13690;BME280;6917;52.194;9.894;2022-12-01T08:56:55;101590.81;;;1.18;100.00
13690;BME280;6917;52.194;9.894;2022-12-01T08:59:20;101592.91;;;1.16;100.00
13690;BME280;6917;52.194;9.894;2022-12-01T09:01:45;101599.97;;;1.11;100.00
13690;BME280;6917;52.194;9.894;2022-12-01T09:04:19;101602.44;;;1.12;100.00
13690;BME280;6917;52.194;9.894;2022-12-01T09:06:46;101607.38;;;1.15;100.00
13690;BME280;6917;52.194;9.894;2022-12-01T09:09:14;101606.38;;;1.16;100.00
13690;BME280;6917;52.194;9.894;2022-12-01T09:11:40;101605.16;;;1.12;100.00
13690;BME280;6917;52.194;9.894;2022-12-01T09:14:08;101604.50;;;1.17;100.00
13690;BME280;6917;52.194;9.894;2022-12-01T09:16:33;101602.56;;;1.24;100.00
13690;BME280;6917;52.194;9.894;2022-12-01T09:18:58;101594.94;;;1.21;100.00
13690;BME280;6917;52.194;9.894;2022-12-01T09:21:26;101606.75;;;1.20;100.00
13690;BME280;6917;52.194;9.894;2022-12-01T09:23:54;101602.63;;;1.17;100.00
13690;BME280;6917;52.194;9.894;2022-12-01T09:26:19;101607.72;;;1.26;100.00
13690;BME280;6917;52.194;9.894;2022-12-01T09:28:46;101605.63;;;1.28;100.00
13690;BME280;6917;52.194;9.894;2022-12-01T09:31:11;101607.72;;;1.26;100.00
13690;BME280;6917;52.194;9.894;2022-12-01T09:33:38;101609.59;;;1.25;100.00
13690;BME280;6917;52.194;9.894;2022-12-01T09:36:04;101612.72;;;1.22;100.00
13690;BME280;6917;52.194;9.894;2022-12-01T09:38:32;101614.59;;;1.22;100.00
13690;BME280;6917;52.194;9.894;2022-12-01T09:41:21;101605.47;;;1.23;100.00
13690;BME280;6917;52.194;9.894;2022-12-01T09:44:42;101609.97;;;1.29;100.00
13690;BME280;6917;52.194;9.894;2022-12-01T09:47:13;101600.91;;;1.23;100.00
13690;BME280;6917;52.194;9.894;2022-12-01T09:49:56;101608.16;;;1.23;100.00
13690;BME280;6917;52.194;9.894;2022-12-01T09:52:26;101598.44;;;1.22;100.00
13690;BME280;6917;52.194;9.894;2022-12-01T09:54:54;101601.28;;;1.27;100.00
13690;BME280;6917;52.194;9.894;2022-12-01T09:57:34;101600.47;;;1.26;100.00
13690;BME280;6917;52.194;9.894;2022-12-01T10:00:12;101594.88;;;1.28;100.00
13690;BME280;6917;52.194;9.894;2022-12-01T10:02:50;101586.19;;;1.26;100.00
13690;BME280;6917;52.194;9.894;2022-12-01T10:05:22;101584.69;;;1.30;100.00
13690;BME280;6917;52.194;9.894;2022-12-01T10:07:54;101586.78;;;1.28;100.00
13690;BME280;6917;52.194;9.894;2022-12-01T10:10:32;101587.22;;;1.25;100.00
13690;BME280;6917;52.194;9.894;2022-12-01T10:12:58;101584.41;;;1.19;100.00
13690;BME280;6917;52.194;9.894;2022-12-01T10:16:05;101584.16;;;1.21;100.00
13690;BME280;6917;52.194;9.894;2022-12-01T10:26:44;101588.38;;;1.35;100.00
13690;BME280;6917;52.194;9.894;2022-12-01T10:29:26;101585.38;;;1.43;100.00
13690;BME280;6917;52.194;9.894;2022-12-01T10:31:57;101588.31;;;1.42;100.00
13690;BME280;6917;52.194;9.894;2022-12-01T10:34:29;101590.34;;;1.46;100.00
13690;BME280;6917;52.194;9.894;2022-12-01T10:36:57;101598.81;;;1.50;100.00
13690;BME280;6917;52.194;9.894;2022-12-01T10:39:29;101590.72;;;1.50;100.00
13690;BME280;6917;52.194;9.894;2022-12-01T10:44:28;101581.97;;;1.55;100.00
13690;BME280;6917;52.194;9.894;2022-12-01T10:46:55;101590.88;;;1.55;100.00
13690;BME280;6917;52.194;9.894;2022-12-01T10:49:39;101586.22;;;1.44;100.00
13690;BME280;6917;52.194;9.894;2022-12-01T10:52:29;101581.22;;;1.47;100.00
13690;BME280;6917;52.194;9.894;2022-12-01T10:54:52;101582.66;;;1.50;100.00
13690;BME280;6917;52.194;9.894;2022-12-01T10:57:17;101585.13;;;1.52;100.00
13690;BME280;6917;52.194;9.894;2022-12-01T10:59:55;101577.03;;;1.52;100.00
13690;BME280;6917;52.194;9.894;2022-12-01T11:02:27;101581.13;;;1.54;100.00
13690;BME280;6917;52.194;9.894;2022-12-01T11:05:21;101583.78;;;1.61;100.00
13690;BME280;6917;52.194;9.894;2022-12-01T11:07:48;101578.41;;;1.61;100.00
13690;BME280;6917;52.194;9.894;2022-12-01T11:10:17;101578.69;;;1.53;100.00
13690;BME280;6917;52.194;9.894;2022-12-01T11:12:52;101578.31;;;1.49;100.00
13690;BME280;6917;52.194;9.894;2022-12-01T11:15:23;101580.69;;;1.57;100.00
13690;BME280;6917;52.194;9.894;2022-12-01T11:17:57;101577.25;;;1.50;100.00
13690;BME280;6917;52.194;9.894;2022-12-01T11:20:34;101581.31;;;1.59;100.00
13690;BME280;6917;52.194;9.894;2022-12-01T11:28:40;101571.38;;;1.60;100.00
13690;BME280;6917;52.194;9.894;2022-12-01T11:31:09;101575.75;;;1.54;100.00
13690;BME280;6917;52.194;9.894;2022-12-01T11:33:52;101571.88;;;1.68;100.00
13690;BME280;6917;52.194;9.894;2022-12-01T11:36:44;101571.13;;;1.61;100.00
13690;BME280;6917;52.194;9.894;2022-12-01T11:39:25;101571.41;;;1.71;100.00
13690;BME280;6917;52.194;9.894;2022-12-01T11:41:58;101572.88;;;1.74;100.00
13690;BME280;6917;52.194;9.894;2022-12-01T11:44:25;101565.75;;;1.61;100.00
13690;BME280;6917;52.194;9.894;2022-12-01T11:46:50;101565.66;;;1.68;100.00
13690;BME280;6917;52.194;9.894;2022-12-01T11:49:22;101564.94;;;1.61;100.00
13690;BME280;6917;52.194;9.894;2022-12-01T11:51:48;101574.94;;;1.72;100.00
13690;BME280;6917;52.194;9.894;2022-12-01T11:54:18;101573.06;;;1.72;100.00
13690;BME280;6917;52.194;9.894;2022-12-01T11:56:45;101577.84;;;1.70;100.00
13690;BME280;6917;52.194;9.894;2022-12-01T11:59:13;101568.13;;;1.69;100.00
13690;BME280;6917;52.194;9.894;2022-12-01T12:07:38;101571.72;;;1.63;100.00
13690;BME280;6917;52.194;9.894;2022-12-01T12:21:45;101567.84;;;1.59;100.00
13690;BME280;6917;52.194;9.894;2022-12-01T12:27:05;101571.88;;;1.68;100.00
13690;BME280;6917;52.194;9.894;2022-12-01T12:32:46;101566.47;;;1.68;100.00
13690;BME280;6917;52.194;9.894;2022-12-01T12:35:42;101551.13;;;1.69;100.00
13690;BME280;6917;52.194;9.894;2022-12-01T12:38:28;101558.03;;;1.65;100.00
13690;BME280;6917;52.194;9.894;2022-12-01T12:41:10;101559.00;;;1.70;100.00
13690;BME280;6917;52.194;9.894;2022-12-01T12:46:30;101555.56;;;1.63;100.00
13690;BME280;6917;52.194;9.894;2022-12-01T12:51:58;101544.94;;;1.68;100.00
13690;BME280;6917;52.194;9.894;2022-12-01T12:54:37;101551.97;;;1.69;100.00
13690;BME280;6917;52.194;9.894;2022-12-01T12:57:42;101549.03;;;1.71;100.00
13690;BME280;6917;52.194;9.894;2022-12-01T13:07:45;101554.66;;;1.69;100.00
13690;BME280;6917;52.194;9.894;2022-12-01T13:10:40;101555.56;;;1.63;100.00
13690;BME280;6917;52.194;9.894;2022-12-01T13:13:19;101562.16;;;1.67;100.00
13690;BME280;6917;52.194;9.894;2022-12-01T13:15:48;101561.09;;;1.68;100.00
13690;BME280;6917;52.194;9.894;2022-12-01T13:20:46;101548.53;;;1.62;100.00
13690;BME280;6917;52.194;9.894;2022-12-01T13:23:15;101541.50;;;1.61;100.00
13690;BME280;6917;52.194;9.894;2022-12-01T13:25:43;101542.47;;;1.67;100.00
13690;BME280;6917;52.194;9.894;2022-12-01T13:28:18;101539.88;;;1.60;100.00
13690;BME280;6917;52.194;9.894;2022-12-01T13:33:26;101547.72;;;1.62;100.00
13690;BME280;6917;52.194;9.894;2022-12-01T13:35:53;101542.75;;;1.59;100.00
13690;BME280;6917;52.194;9.894;2022-12-01T13:38:30;101530.34;;;1.58;100.00
13690;BME280;6917;52.194;9.894;2022-12-01T13:41:10;101527.75;;;1.51;100.00
13690;BME280;6917;52.194;9.894;2022-12-01T13:43:36;101528.66;;;1.45;100.00
13690;BME280;6917;52.194;9.894;2022-12-01T13:46:21;101534.47;;;1.42;100.00
13690;BME280;6917;52.194;9.894;2022-12-01T13:51:12;101523.91;;;1.40;100.00
13690;BME280;6917;52.194;9.894;2022-12-01T13:53:38;101520.78;;;1.43;100.00
13690;BME280;6917;52.194;9.894;2022-12-01T13:56:04;101525.78;;;1.40;100.00
13690;BME280;6917;52.194;9.894;2022-12-01T14:08:59;101526.00;;;1.38;100.00
13690;BME280;6917;52.194;9.894;2022-12-01T14:11:28;101532.81;;;1.41;100.00
13690;BME280;6917;52.194;9.894;2022-12-01T14:13:58;101529.66;;;1.44;100.00
13690;BME280;6917;52.194;9.894;2022-12-01T14:16:47;101530.13;;;1.41;100.00
13690;BME280;6917;52.194;9.894;2022-12-01T14:19:33;101527.06;;;1.37;100.00
13690;BME280;6917;52.194;9.894;2022-12-01T14:22:01;101517.88;;;1.45;100.00
13690;BME280;6917;52.194;9.894;2022-12-01T14:24:38;101531.41;;;1.38;100.00
13690;BME280;6917;52.194;9.894;2022-12-01T14:27:06;101542.41;;;1.37;100.00
13690;BME280;6917;52.194;9.894;2022-12-01T14:29:37;101537.97;;;1.42;100.00
13690;BME280;6917;52.194;9.894;2022-12-01T14:34:33;101539.25;;;1.40;100.00
13690;BME280;6917;52.194;9.894;2022-12-01T14:37:19;101547.31;;;1.40;100.00
13690;BME280;6917;52.194;9.894;2022-12-01T14:39:55;101549.28;;;1.33;100.00
13690;BME280;6917;52.194;9.894;2022-12-01T14:42:32;101545.09;;;1.37;100.00
13690;BME280;6917;52.194;9.894;2022-12-01T14:45:23;101555.25;;;1.35;100.00
13690;BME280;6917;52.194;9.894;2022-12-01T14:48:00;101555.03;;;1.36;100.00
13690;BME280;6917;52.194;9.894;2022-12-01T14:50:46;101554.22;;;1.36;100.00
13690;BME280;6917;52.194;9.894;2022-12-01T14:53:29;101558.19;;;1.33;100.00
13690;BME280;6917;52.194;9.894;2022-12-01T14:56:15;101558.41;;;1.32;100.00
13690;BME280;6917;52.194;9.894;2022-12-01T14:58:59;101567.22;;;1.39;100.00
13690;BME280;6917;52.194;9.894;2022-12-01T15:01:31;101558.91;;;1.40;100.00
13690;BME280;6917;52.194;9.894;2022-12-01T15:04:00;101563.19;;;1.48;100.00
13690;BME280;6917;52.194;9.894;2022-12-01T15:06:27;101565.13;;;1.41;100.00